createdAt,value
2023-02-27T00:00:14.828Z,-2.57
2023-02-27T00:02:44.317Z,-2.53
2023-02-27T00:05:13.289Z,-2.58
2023-02-27T00:07:42.258Z,-2.63
2023-02-27T00:10:13.808Z,-2.60
2023-02-27T00:12:42.876Z,-2.60
2023-02-27T00:15:15.615Z,-2.68
2023-02-27T00:17:44.635Z,-2.63
2023-02-27T00:20:15.656Z,-2.67
2023-02-27T00:22:44.774Z,-2.66
2023-02-27T00:25:14.318Z,-2.60
2023-02-27T00:27:43.622Z,-2.62
2023-02-27T00:30:16.430Z,-2.56
2023-02-27T00:32:45.388Z,-2.60
2023-02-27T00:35:14.020Z,-2.62
2023-02-27T00:37:42.580Z,-2.55
2023-02-27T00:40:13.370Z,-2.54
2023-02-27T00:42:42.044Z,-2.58
2023-02-27T00:45:11.330Z,-2.58
2023-02-27T00:47:41.195Z,-2.68
2023-02-27T00:50:12.145Z,-2.68
2023-02-27T00:52:40.792Z,-2.71
2023-02-27T00:55:10.864Z,-2.78
2023-02-27T00:57:40.431Z,-2.82
2023-02-27T01:00:11.201Z,-2.80
2023-02-27T01:02:41.418Z,-2.75
2023-02-27T01:05:11.164Z,-2.65
2023-02-27T01:07:39.997Z,-2.70
2023-02-27T01:10:09.964Z,-2.68
2023-02-27T01:12:39.843Z,-2.68
2023-02-27T01:15:10.740Z,-2.70
2023-02-27T01:17:39.371Z,-2.75
2023-02-27T01:20:12.320Z,-2.80
2023-02-27T01:22:41.079Z,-2.84
2023-02-27T01:25:10.042Z,-2.90
2023-02-27T01:27:40.921Z,-2.94
2023-02-27T01:30:11.477Z,-2.93
2023-02-27T01:32:40.086Z,-3.00
2023-02-27T01:35:10.450Z,-3.11
2023-02-27T01:37:38.910Z,-3.06
2023-02-27T01:40:08.900Z,-3.06
2023-02-27T01:42:37.795Z,-3.06
2023-02-27T01:45:27.477Z,-3.10
2023-02-27T01:48:06.020Z,-3.10
2023-02-27T01:50:40.507Z,-3.08
2023-02-27T01:53:10.302Z,-2.99
2023-02-27T01:55:40.752Z,-2.83
2023-02-27T01:58:12.863Z,-2.90
2023-02-27T02:00:41.530Z,-2.96
2023-02-27T02:03:21.345Z,-2.99
2023-02-27T02:05:54.601Z,-3.01
2023-02-27T02:08:25.796Z,-3.06
2023-02-27T02:10:56.399Z,-3.06
2023-02-27T02:13:25.130Z,-3.07
2023-02-27T02:16:07.804Z,-3.10
2023-02-27T02:18:48.405Z,-3.14
2023-02-27T02:22:01.689Z,-3.10
2023-02-27T02:25:14.933Z,-3.12
2023-02-27T02:27:57.658Z,-3.05
2023-02-27T02:30:54.397Z,-2.85
2023-02-27T02:34:03.330Z,-2.75
2023-02-27T02:37:05.442Z,-2.71
2023-02-27T02:39:52.446Z,-2.63
2023-02-27T02:42:24.923Z,-2.63
2023-02-27T02:45:09.773Z,-2.73
2023-02-27T02:47:47.804Z,-2.61
2023-02-27T02:50:27.333Z,-2.55
2023-02-27T02:53:05.705Z,-2.53
2023-02-27T02:55:43.303Z,-2.72
2023-02-27T02:58:18.592Z,-2.64
2023-02-27T03:00:52.403Z,-2.60
2023-02-27T03:03:27.603Z,-2.56
2023-02-27T03:06:01.945Z,-2.55
2023-02-27T03:08:34.128Z,-2.61
2023-02-27T03:11:05.266Z,-2.63
2023-02-27T03:13:40.070Z,-2.69
2023-02-27T03:16:15.719Z,-2.56
2023-02-27T03:18:50.455Z,-2.62
2023-02-27T03:21:24.325Z,-2.66
2023-02-27T03:23:57.435Z,-2.67
2023-02-27T03:26:34.646Z,-2.74
2023-02-27T03:29:07.574Z,-2.64
2023-02-27T03:31:43.120Z,-2.64
2023-02-27T03:34:17.973Z,-2.63
2023-02-27T03:36:51.570Z,-2.49
2023-02-27T03:39:28.565Z,-2.57
2023-02-27T03:42:07.761Z,-2.49
2023-02-27T03:45:09.028Z,-2.48
2023-02-27T03:47:38.060Z,-2.40
2023-02-27T03:50:07.748Z,-2.48
2023-02-27T03:52:36.393Z,-2.51
2023-02-27T03:55:12.185Z,-2.60
2023-02-27T03:57:43.601Z,-2.55
2023-02-27T04:00:19.452Z,-2.50
2023-02-27T04:02:51.617Z,-2.56
2023-02-27T04:05:24.453Z,-2.74
2023-02-27T04:08:24.531Z,-2.87
2023-02-27T04:11:14.071Z,-2.98
2023-02-27T04:13:55.233Z,-2.97
2023-02-27T04:16:44.545Z,-3.00
2023-02-27T04:19:24.234Z,-3.07
2023-02-27T04:22:05.606Z,-3.17
2023-02-27T04:24:43.901Z,-3.22
2023-02-27T04:27:23.146Z,-3.24
2023-02-27T04:30:00.840Z,-3.29
2023-02-27T04:32:35.988Z,-3.36
2023-02-27T04:35:09.751Z,-3.41
2023-02-27T04:37:47.420Z,-3.48
2023-02-27T04:40:20.309Z,-3.45
2023-02-27T04:42:54.877Z,-3.45
2023-02-27T04:45:28.423Z,-3.50
2023-02-27T04:48:02.415Z,-3.53
2023-02-27T04:50:37.355Z,-3.53
2023-02-27T04:53:12.498Z,-3.58
2023-02-27T04:55:47.676Z,-3.65
2023-02-27T04:58:21.029Z,-3.64
2023-02-27T05:00:57.061Z,-3.63
2023-02-27T05:03:27.902Z,-3.70
2023-02-27T05:06:00.206Z,-3.71
2023-02-27T05:08:34.779Z,-3.55
2023-02-27T05:11:09.973Z,-3.56
2023-02-27T05:13:43.118Z,-3.60
2023-02-27T05:16:20.891Z,-3.64
2023-02-27T05:18:50.754Z,-3.67
2023-02-27T05:21:28.217Z,-3.71
2023-02-27T05:24:10.906Z,-3.70
2023-02-27T05:26:56.876Z,-3.72
2023-02-27T05:29:32.587Z,-3.75
2023-02-27T05:32:11.654Z,-3.71
2023-02-27T05:34:45.516Z,-3.73
2023-02-27T05:37:17.316Z,-3.78
2023-02-27T05:39:49.518Z,-3.67
2023-02-27T05:42:22.123Z,-3.72
2023-02-27T05:44:55.548Z,-3.76
2023-02-27T05:47:31.333Z,-3.70
2023-02-27T05:50:05.318Z,-3.62
2023-02-27T05:52:36.261Z,-3.57
2023-02-27T05:55:08.186Z,-3.65
2023-02-27T05:57:41.840Z,-3.64
2023-02-27T06:00:17.367Z,-3.67
2023-02-27T06:02:47.328Z,-3.64
2023-02-27T06:05:18.713Z,-3.68
2023-02-27T06:07:47.449Z,-3.71
2023-02-27T06:10:17.640Z,-3.64
2023-02-27T06:12:46.566Z,-3.69
2023-02-27T06:15:15.384Z,-3.68
2023-02-27T06:17:43.898Z,-3.70
2023-02-27T06:20:14.554Z,-3.68
2023-02-27T06:22:42.943Z,-3.69
2023-02-27T06:25:12.023Z,-3.68
2023-02-27T06:27:40.483Z,-3.64
2023-02-27T06:30:10.168Z,-3.70
2023-02-27T06:32:38.700Z,-3.65
2023-02-27T06:35:08.579Z,-3.65
2023-02-27T06:37:38.770Z,-3.59
2023-02-27T06:40:11.499Z,-3.60
2023-02-27T06:42:40.192Z,-3.65
2023-02-27T06:45:10.257Z,-3.58
2023-02-27T06:47:39.020Z,-3.53
2023-02-27T06:50:12.186Z,-3.43
2023-02-27T06:52:42.250Z,-3.33
2023-02-27T06:55:11.990Z,-3.26
2023-02-27T06:57:40.520Z,-3.19
2023-02-27T07:00:11.853Z,-3.20
2023-02-27T07:02:40.748Z,-3.22
2023-02-27T07:05:11.953Z,-3.23
2023-02-27T07:07:41.850Z,-3.16
2023-02-27T07:10:13.917Z,-3.09
2023-02-27T07:12:42.461Z,-3.04
2023-02-27T07:15:12.041Z,-2.96
2023-02-27T07:17:40.742Z,-2.90
2023-02-27T07:20:12.608Z,-2.85
2023-02-27T07:22:42.496Z,-2.76
2023-02-27T07:25:11.524Z,-2.71
2023-02-27T07:27:40.043Z,-2.69
2023-02-27T07:30:09.934Z,-2.63
2023-02-27T07:32:38.374Z,-2.54
2023-02-27T07:35:08.135Z,-2.47
2023-02-27T07:37:36.988Z,-2.38
2023-02-27T07:40:09.042Z,-2.26
2023-02-27T07:42:37.517Z,-2.18
2023-02-27T07:45:07.633Z,-2.04
2023-02-27T07:47:36.287Z,-1.96
2023-02-27T07:50:05.417Z,-1.75
2023-02-27T07:52:34.136Z,-1.67
2023-02-27T07:55:02.667Z,-1.62
2023-02-27T07:57:32.566Z,-1.49
2023-02-27T08:00:01.040Z,-1.31
2023-02-27T08:02:29.574Z,-1.26
2023-02-27T08:04:58.045Z,-0.97
2023-02-27T08:07:26.786Z,-0.98
2023-02-27T08:09:55.247Z,-0.79
2023-02-27T08:12:24.155Z,-0.69
2023-02-27T08:14:54.119Z,-0.37
2023-02-27T08:17:22.659Z,-0.18
2023-02-27T08:19:51.099Z,-0.04
2023-02-27T08:22:19.586Z,0.01
2023-02-27T08:24:48.193Z,0.16
2023-02-27T08:27:16.599Z,0.50
2023-02-27T08:29:45.528Z,0.39
2023-02-27T08:32:15.497Z,0.85
2023-02-27T08:34:43.978Z,0.72
2023-02-27T08:37:12.523Z,0.61
2023-02-27T08:39:40.988Z,0.67
2023-02-27T08:42:10.062Z,1.00
2023-02-27T08:44:38.623Z,0.43
2023-02-27T08:47:07.118Z,0.78
2023-02-27T08:49:37.058Z,0.71
2023-02-27T08:52:05.605Z,0.94
2023-02-27T08:54:34.041Z,0.78
2023-02-27T08:57:02.630Z,0.99
2023-02-27T08:59:31.357Z,1.42
2023-02-27T09:02:00.045Z,1.17
2023-02-27T09:04:28.762Z,1.62
2023-02-27T09:06:58.606Z,1.71
2023-02-27T09:09:27.449Z,1.79
2023-02-27T09:11:56.022Z,1.94
2023-02-27T09:14:25.095Z,2.06
2023-02-27T09:16:53.661Z,2.02
2023-02-27T09:19:22.360Z,2.26
2023-02-27T09:21:50.833Z,2.46
2023-02-27T09:24:21.123Z,3.01
2023-02-27T09:26:49.844Z,2.89
2023-02-27T09:29:18.732Z,2.94
2023-02-27T09:31:47.349Z,3.18
2023-02-27T09:34:15.889Z,3.00
2023-02-27T09:36:44.379Z,3.18
2023-02-27T09:39:12.835Z,3.38
2023-02-27T09:41:57.264Z,3.13
2023-02-27T09:44:45.737Z,3.52
2023-02-27T09:47:20.428Z,3.35
2023-02-27T09:50:00.408Z,3.80
2023-02-27T09:52:30.214Z,4.08
2023-02-27T09:54:59.072Z,3.90
2023-02-27T09:57:43.741Z,3.60
2023-02-27T10:00:28.191Z,3.81
2023-02-27T10:03:02.954Z,4.20
2023-02-27T10:05:38.493Z,4.49
2023-02-27T10:08:15.646Z,4.62
2023-02-27T10:10:51.319Z,4.54
2023-02-27T10:13:50.393Z,3.88
2023-02-27T10:16:21.899Z,4.23
2023-02-27T10:18:57.987Z,4.35
2023-02-27T10:21:34.231Z,4.71
2023-02-27T10:24:07.866Z,5.10
2023-02-27T10:26:40.484Z,5.41
2023-02-27T10:29:24.237Z,5.08
2023-02-27T10:32:01.303Z,5.70
2023-02-27T10:34:32.001Z,5.12
2023-02-27T10:37:03.497Z,5.07
2023-02-27T10:39:37.508Z,5.24
2023-02-27T10:42:10.411Z,5.27
2023-02-27T10:44:40.324Z,5.11
2023-02-27T10:47:13.943Z,5.46
2023-02-27T10:49:43.849Z,4.91
2023-02-27T10:52:14.614Z,5.24
2023-02-27T10:54:44.000Z,4.76
2023-02-27T10:57:26.201Z,4.21
2023-02-27T10:59:58.779Z,3.32
2023-02-27T11:02:33.793Z,3.02
2023-02-27T11:05:02.586Z,3.14
2023-02-27T11:07:33.877Z,2.96
2023-02-27T11:10:16.108Z,2.77
2023-02-27T11:12:59.519Z,3.03
2023-02-27T11:15:31.553Z,2.89
2023-02-27T11:18:25.720Z,3.82
2023-02-27T11:20:54.732Z,3.94
2023-02-27T11:23:24.903Z,4.33
2023-02-27T11:26:12.071Z,3.48
2023-02-27T11:28:40.443Z,2.96
2023-02-27T11:31:20.187Z,2.62
2023-02-27T11:33:52.203Z,2.95
2023-02-27T11:36:23.524Z,2.82
2023-02-27T11:38:54.241Z,2.83
2023-02-27T11:41:31.915Z,3.47
2023-02-27T11:44:02.971Z,4.47
2023-02-27T11:46:47.328Z,3.61
2023-02-27T11:49:33.307Z,4.77
2023-02-27T11:52:11.526Z,5.34
2023-02-27T11:54:44.396Z,4.19
2023-02-27T11:57:24.625Z,4.43
2023-02-27T11:59:59.320Z,4.55
2023-02-27T12:02:39.436Z,3.31
2023-02-27T12:05:15.337Z,3.68
2023-02-27T12:07:49.917Z,3.61
2023-02-27T12:10:21.284Z,3.36
2023-02-27T12:12:54.238Z,3.13
2023-02-27T12:15:28.751Z,2.99
2023-02-27T12:18:08.016Z,3.11
2023-02-27T12:20:41.556Z,3.22
2023-02-27T12:23:18.976Z,3.38
2023-02-27T12:25:52.598Z,3.14
2023-02-27T12:28:34.191Z,3.30
2023-02-27T12:31:14.124Z,2.78
2023-02-27T12:33:50.862Z,3.28
2023-02-27T12:38:16.441Z,5.26
2023-02-27T12:40:52.600Z,5.66
2023-02-27T12:43:32.132Z,5.11
2023-02-27T12:46:22.126Z,4.53
2023-02-27T12:49:06.022Z,3.93
2023-02-27T12:54:20.996Z,4.14
2023-02-27T12:57:02.042Z,4.13
2023-02-27T12:59:44.421Z,3.40
2023-02-27T13:02:30.697Z,3.27
2023-02-27T13:05:08.956Z,3.10
2023-02-27T13:07:44.836Z,2.95
2023-02-27T13:10:19.953Z,2.81
2023-02-27T13:12:54.865Z,3.07
2023-02-27T13:15:27.049Z,3.14
2023-02-27T13:18:00.341Z,3.19
2023-02-27T13:20:37.274Z,4.32
2023-02-27T13:23:17.236Z,4.34
2023-02-27T13:25:51.076Z,3.68
2023-02-27T13:28:24.102Z,3.02
2023-02-27T13:31:03.092Z,3.07
2023-02-27T13:33:39.699Z,2.88
2023-02-27T13:36:14.372Z,2.80
2023-02-27T13:38:45.020Z,2.99
2023-02-27T13:41:42.098Z,3.38
2023-02-27T13:44:42.007Z,3.17
2023-02-27T13:47:40.000Z,3.11
2023-02-27T13:50:45.665Z,3.59
2023-02-27T13:53:21.465Z,3.84
2023-02-27T13:55:51.309Z,3.35
2023-02-27T13:58:25.394Z,3.10
2023-02-27T14:00:58.355Z,2.80
2023-02-27T14:03:30.104Z,2.66
2023-02-27T14:06:03.591Z,2.92
2023-02-27T14:08:38.437Z,2.54
2023-02-27T14:11:18.487Z,2.82
2023-02-27T14:14:05.066Z,2.60
2023-02-27T14:16:52.953Z,2.64
2023-02-27T14:19:50.312Z,2.62
2023-02-27T14:23:09.596Z,2.55
2023-02-27T14:25:43.065Z,2.52
2023-02-27T14:28:21.472Z,2.60
2023-02-27T14:30:57.435Z,2.56
2023-02-27T14:33:39.688Z,2.57
2023-02-27T14:36:16.789Z,2.60
2023-02-27T14:38:45.430Z,2.44
2023-02-27T14:41:26.645Z,2.37
2023-02-27T14:43:57.587Z,2.34
2023-02-27T14:46:31.114Z,2.21
2023-02-27T14:49:01.766Z,2.16
2023-02-27T14:51:32.871Z,2.30
2023-02-27T14:54:04.233Z,2.02
2023-02-27T14:56:33.619Z,2.04
2023-02-27T14:59:04.650Z,2.17
2023-02-27T15:01:38.509Z,2.19
2023-02-27T15:05:27.981Z,2.07
2023-02-27T15:07:56.745Z,1.99
2023-02-27T15:10:30.994Z,1.83
2023-02-27T15:13:00.904Z,1.94
2023-02-27T15:15:29.871Z,1.91
2023-02-27T15:17:59.271Z,1.74
2023-02-27T15:20:32.197Z,1.65
2023-02-27T15:23:02.631Z,1.66
2023-02-27T15:25:33.661Z,1.68
2023-02-27T15:28:04.394Z,1.51
2023-02-27T15:30:33.510Z,1.39
2023-02-27T15:33:03.014Z,1.33
2023-02-27T15:35:37.908Z,1.46
2023-02-27T15:38:07.597Z,1.48
2023-02-27T15:40:37.348Z,1.48
2023-02-27T15:43:06.246Z,1.56
2023-02-27T15:45:36.851Z,1.45
2023-02-27T15:48:06.279Z,1.63
2023-02-27T15:50:38.594Z,1.61
2023-02-27T15:55:03.867Z,1.32
2023-02-27T15:57:33.673Z,1.30
2023-02-27T16:00:02.347Z,1.35
2023-02-27T16:02:45.846Z,1.28
2023-02-27T16:05:19.578Z,1.25
2023-02-27T16:07:49.777Z,1.21
2023-02-27T16:10:22.839Z,1.15
2023-02-27T16:12:51.508Z,1.14
2023-02-27T16:15:30.891Z,1.09
2023-02-27T16:18:01.925Z,1.12
2023-02-27T16:20:47.887Z,1.04
2023-02-27T16:23:21.346Z,1.05
2023-02-27T16:26:21.662Z,1.03
2023-02-27T16:28:53.143Z,1.05
2023-02-27T16:31:26.376Z,1.02
2023-02-27T16:33:57.018Z,0.97
2023-02-27T16:36:27.904Z,0.93
2023-02-27T16:38:56.862Z,0.86
2023-02-27T16:41:26.773Z,0.88
2023-02-27T16:43:55.670Z,0.81
2023-02-27T16:46:24.154Z,0.78
2023-02-27T16:48:54.571Z,0.79
2023-02-27T16:51:24.161Z,0.78
2023-02-27T16:53:53.907Z,0.75
2023-02-27T16:56:37.415Z,0.74
2023-02-27T16:59:08.535Z,0.72
2023-02-27T17:01:37.037Z,0.72
2023-02-27T17:04:16.479Z,0.68
2023-02-27T17:06:52.598Z,0.58
2023-02-27T17:09:21.390Z,0.52
2023-02-27T17:11:50.190Z,0.45
2023-02-27T17:14:20.074Z,0.38
2023-02-27T17:16:48.660Z,0.33
2023-02-27T17:19:17.467Z,0.29
2023-02-27T17:21:46.000Z,0.32
2023-02-27T17:24:14.736Z,0.27
2023-02-27T17:26:43.240Z,0.25
2023-02-27T17:29:12.096Z,0.29
2023-02-27T17:31:44.714Z,0.23
2023-02-27T17:34:13.329Z,0.21
2023-02-27T17:36:42.064Z,0.15
2023-02-27T17:39:13.782Z,0.16
2023-02-27T17:41:43.726Z,0.20
2023-02-27T17:44:12.604Z,0.18
2023-02-27T17:46:42.446Z,0.18
2023-02-27T17:49:10.856Z,0.13
2023-02-27T17:51:39.212Z,0.11
2023-02-27T17:54:08.158Z,0.10
2023-02-27T17:56:37.143Z,0.08
2023-02-27T17:59:07.576Z,0.10
2023-02-27T18:01:36.775Z,0.08
2023-02-27T18:04:07.962Z,0.08
2023-02-27T18:06:36.458Z,0.04
2023-02-27T18:09:05.419Z,0.02
2023-02-27T18:11:33.897Z,0.02
2023-02-27T18:14:02.273Z,0.04
2023-02-27T18:16:31.317Z,0.00
2023-02-27T18:19:03.256Z,-0.02
2023-02-27T18:21:34.183Z,-0.06
2023-02-27T18:24:02.789Z,-0.13
2023-02-27T18:26:33.361Z,-0.07
2023-02-27T18:29:04.514Z,-0.11
2023-02-27T18:31:35.211Z,-0.09
2023-02-27T18:34:03.887Z,-0.08
2023-02-27T18:36:34.604Z,-0.14
2023-02-27T18:39:04.877Z,-0.17
2023-02-27T18:41:33.329Z,-0.19
2023-02-27T18:44:01.914Z,-0.20
2023-02-27T18:46:30.720Z,-0.25
2023-02-27T18:48:59.934Z,-0.24
2023-02-27T18:51:28.793Z,-0.22
2023-02-27T18:54:00.000Z,-0.25
2023-02-27T18:56:30.489Z,-0.26
2023-02-27T18:59:02.172Z,-0.26
2023-02-27T19:01:32.823Z,-0.28
2023-02-27T19:04:03.728Z,-0.28
2023-02-27T19:06:33.133Z,-0.26
2023-02-27T19:09:05.431Z,-0.29
2023-02-27T19:11:35.416Z,-0.30
2023-02-27T19:14:05.769Z,-0.29
2023-02-27T19:16:34.574Z,-0.31
2023-02-27T19:19:04.813Z,-0.37
2023-02-27T19:21:34.228Z,-0.35
2023-02-27T19:24:04.329Z,-0.37
2023-02-27T19:26:34.654Z,-0.41
2023-02-27T19:29:03.458Z,-0.36
2023-02-27T19:31:32.738Z,-0.37
2023-02-27T19:34:01.866Z,-0.38
2023-02-27T19:36:31.430Z,-0.42
2023-02-27T19:39:00.260Z,-0.37
2023-02-27T19:41:32.441Z,-0.42
2023-02-27T19:44:01.944Z,-0.42
2023-02-27T19:46:33.328Z,-0.48
2023-02-27T19:49:04.293Z,-0.45
2023-02-27T19:51:32.877Z,-0.47
2023-02-27T19:54:01.569Z,-0.47
2023-02-27T19:56:31.914Z,-0.46
2023-02-27T19:59:00.886Z,-0.45
2023-02-27T20:01:32.536Z,-0.51
2023-02-27T20:04:01.921Z,-0.55
2023-02-27T20:06:33.843Z,-0.48
2023-02-27T20:09:02.313Z,-0.55
2023-02-27T20:11:32.612Z,-0.56
2023-02-27T20:14:01.651Z,-0.54
2023-02-27T20:16:34.232Z,-0.55
2023-02-27T20:19:03.561Z,-0.61
2023-02-27T20:21:33.148Z,-0.66
2023-02-27T20:24:02.073Z,-0.69
2023-02-27T20:26:33.620Z,-0.75
2023-02-27T20:29:04.700Z,-0.72
2023-02-27T20:31:35.242Z,-0.73
2023-02-27T20:34:05.962Z,-0.77
2023-02-27T20:36:35.641Z,-0.64
2023-02-27T20:39:05.282Z,-0.63
2023-02-27T20:41:36.790Z,-0.61
2023-02-27T20:44:08.093Z,-0.67
2023-02-27T20:46:37.538Z,-0.69
2023-02-27T20:49:07.358Z,-0.67
2023-02-27T20:51:38.462Z,-0.70
2023-02-27T20:54:09.153Z,-0.64
2023-02-27T20:56:41.465Z,-0.61
2023-02-27T20:59:14.507Z,-0.59
2023-02-27T21:01:51.318Z,-0.63
2023-02-27T21:04:21.971Z,-0.62
2023-02-27T21:06:51.004Z,-0.67
2023-02-27T21:09:19.814Z,-0.76
2023-02-27T21:11:49.612Z,-0.83
2023-02-27T21:14:18.014Z,-0.89
2023-02-27T21:16:46.471Z,-0.89
2023-02-27T21:19:14.940Z,-0.97
2023-02-27T21:21:43.358Z,-1.01
2023-02-27T21:24:11.861Z,-0.98
2023-02-27T21:26:40.423Z,-1.03
2023-02-27T21:29:12.289Z,-1.20
2023-02-27T21:31:42.308Z,-1.24
2023-02-27T21:34:14.882Z,-1.34
2023-02-27T21:36:44.682Z,-1.34
2023-02-27T21:39:15.072Z,-1.26
2023-02-27T21:41:43.524Z,-1.41
2023-02-27T21:44:16.621Z,-1.46
2023-02-27T21:46:46.116Z,-1.54
2023-02-27T21:49:17.924Z,-1.57
2023-02-27T21:51:47.086Z,-1.60
2023-02-27T21:54:17.156Z,-1.68
2023-02-27T21:56:47.319Z,-1.66
2023-02-27T21:59:18.320Z,-1.66
2023-02-27T22:01:48.255Z,-1.70
2023-02-27T22:04:18.142Z,-1.71
2023-02-27T22:06:47.353Z,-1.67
2023-02-27T22:09:15.974Z,-1.65
2023-02-27T22:11:44.811Z,-1.63
2023-02-27T22:14:13.841Z,-1.55
2023-02-27T22:16:44.058Z,-1.66
2023-02-27T22:19:18.792Z,-1.78
2023-02-27T22:21:47.346Z,-1.84
2023-02-27T22:24:16.158Z,-1.84
2023-02-27T22:26:45.733Z,-1.84
2023-02-27T22:29:14.671Z,-1.93
2023-02-27T22:31:44.747Z,-1.94
2023-02-27T22:34:17.943Z,-1.89
2023-02-27T22:36:52.038Z,-1.92
2023-02-27T22:39:21.229Z,-1.91
2023-02-27T22:41:49.718Z,-1.90
2023-02-27T22:44:18.327Z,-1.80
2023-02-27T22:46:50.591Z,-1.77
2023-02-27T22:49:21.141Z,-1.70
2023-02-27T22:51:51.106Z,-1.69
2023-02-27T22:54:21.347Z,-1.64
2023-02-27T22:56:51.762Z,-1.69
2023-02-27T22:59:20.400Z,-1.73
2023-02-27T23:01:51.494Z,-1.71
2023-02-27T23:04:22.066Z,-1.69
2023-02-27T23:06:52.844Z,-1.75
2023-02-27T23:09:24.130Z,-1.65
2023-02-27T23:11:52.698Z,-1.65
2023-02-27T23:14:21.502Z,-1.69
2023-02-27T23:16:51.396Z,-1.69
2023-02-27T23:19:21.846Z,-1.68
2023-02-27T23:21:50.341Z,-1.68
2023-02-27T23:24:20.184Z,-1.67
2023-02-27T23:26:50.926Z,-1.70
2023-02-27T23:29:19.600Z,-1.65
2023-02-27T23:31:48.199Z,-1.67
2023-02-27T23:34:18.089Z,-1.67
2023-02-27T23:36:46.552Z,-1.71
2023-02-27T23:39:15.042Z,-1.73
2023-02-27T23:41:43.502Z,-1.71
2023-02-27T23:44:29.610Z,-1.68
2023-02-27T23:46:58.074Z,-1.63
2023-02-27T23:49:27.840Z,-1.57
2023-02-27T23:51:56.253Z,-1.59
2023-02-27T23:54:24.674Z,-1.57
2023-02-27T23:56:53.167Z,-1.63
2023-02-27T23:59:21.642Z,-1.53
